This is the latest recevied weather packets stored in our database for station/object TG5ALY-16. If no packets are shown the sender has not sent any weather packets the latest 10 day(s).
| Time | Temp. | Humidity | Pressure | Rain* | Wind** | Luminosity | Snow |
|---|---|---|---|---|---|---|---|
| 1778178288 | 25.56° C | 27% | 1015 hPa | 0 mm | - | - | - |
| 1778177688 | 25.56° C | 27% | 1015 hPa | 0 mm | - | - | - |
| 1778177087 | 25° C | 33% | 1015 hPa | 0 mm | - | - | - |
| 1778176486 | 25° C | 33% | 1015 hPa | 0 mm | - | - | - |
| 1778175885 | 25° C | 35% | 1015 hPa | 0 mm | - | - | - |
| 1778175285 | 23.89° C | 47% | 1015 hPa | 0 mm | - | - | - |
| 1778174684 | 23.89° C | 47% | 1015 hPa | 0 mm | - | - | - |
| 1778174083 | 23.89° C | 47% | 1015 hPa | 0 mm | - | - | - |
| 1778173482 | 23.89° C | 46% | 1015 hPa | 0 mm | - | - | - |
| 1778172882 | 23.89° C | 49% | 1015 hPa | 0 mm | - | - | - |
| 1778172281 | 22.78° C | 51% | 1015 hPa | 0 mm | - | - | - |
| 1778171680 | 22.78° C | 52% | 1015 hPa | 0 mm | - | - | - |
| 1778171080 | 22.22° C | 57% | 1016 hPa | 0 mm | - | - | - |
| 1778170479 | 22.22° C | 57% | 1016 hPa | 0 mm | - | - | - |
| 1778169879 | 22.22° C | 57% | 1016 hPa | 0 mm | - | - | - |
| 1778169278 | 21.67° C | 61% | 1016 hPa | 0 mm | - | - | - |
| 1778168879 | 21.11° C | 63% | 1016 hPa | 0 mm | - | - | - |
| 1778168278 | 21.11° C | 63% | 1016 hPa | 0 mm | - | - | - |
| 1778167678 | 20° C | 67% | 1016 hPa | 0 mm | - | - | - |
| 1778167077 | 20° C | 68% | 1016 hPa | 0 mm | - | - | - |
| 1778166477 | 18.33° C | 75% | 1016 hPa | 0 mm | - | - | - |
| 1778165876 | 17.78° C | 75% | 1016 hPa | 0 mm | - | - | - |
| 1778165275 | 18.33° C | 73% | 1016 hPa | 0 mm | - | - | - |
| 1778164675 | 18.33° C | 73% | 1016 hPa | 0 mm | - | - | - |
| 1778164074 | 17.78° C | 73% | 1017 hPa | 0 mm | - | - | - |
* Rain latest hour (hover to see other rain measurements)
** Current wind speed in m/s (hover to see current wind gust speed)